sensor_id;sensor_type;location;lat;lon;timestamp;P1;durP1;ratioP1;P2;durP2;ratioP2
80725;SDS011;70113;59.928;10.878;2023-12-20T00:59:33;8.75;;;3.08;;
80725;SDS011;70113;59.928;10.878;2023-12-20T01:01:59;5.95;;;2.80;;
80725;SDS011;70113;59.928;10.878;2023-12-20T01:04:24;6.10;;;3.15;;
80725;SDS011;70113;59.928;10.878;2023-12-20T01:06:50;9.10;;;3.55;;
80725;SDS011;70113;59.928;10.878;2023-12-20T01:09:15;6.70;;;3.33;;
80725;SDS011;70113;59.928;10.878;2023-12-20T01:11:41;10.30;;;3.47;;
80725;SDS011;70113;59.928;10.878;2023-12-20T01:14:06;7.15;;;2.88;;
80725;SDS011;70113;59.928;10.878;2023-12-20T01:16:32;8.32;;;3.20;;
80725;SDS011;70113;59.928;10.878;2023-12-20T01:18:58;7.10;;;2.92;;
80725;SDS011;70113;59.928;10.878;2023-12-20T01:21:24;8.02;;;3.28;;
80725;SDS011;70113;59.928;10.878;2023-12-20T01:23:49;7.68;;;2.97;;
80725;SDS011;70113;59.928;10.878;2023-12-20T01:26:15;10.90;;;3.20;;
80725;SDS011;70113;59.928;10.878;2023-12-20T01:28:40;8.13;;;3.08;;
80725;SDS011;70113;59.928;10.878;2023-12-20T01:31:06;8.45;;;2.55;;
80725;SDS011;70113;59.928;10.878;2023-12-20T01:33:32;7.18;;;2.60;;
80725;SDS011;70113;59.928;10.878;2023-12-20T01:35:58;8.77;;;2.63;;
80725;SDS011;70113;59.928;10.878;2023-12-20T01:38:23;8.88;;;2.83;;
80725;SDS011;70113;59.928;10.878;2023-12-20T01:40:49;9.18;;;2.78;;
80725;SDS011;70113;59.928;10.878;2023-12-20T01:43:14;11.50;;;3.15;;
80725;SDS011;70113;59.928;10.878;2023-12-20T01:45:40;10.55;;;2.95;;
80725;SDS011;70113;59.928;10.878;2023-12-20T01:48:06;8.00;;;3.10;;
80725;SDS011;70113;59.928;10.878;2023-12-20T01:50:33;7.53;;;2.80;;
80725;SDS011;70113;59.928;10.878;2023-12-20T01:53:00;6.35;;;2.67;;
80725;SDS011;70113;59.928;10.878;2023-12-20T01:55:27;11.10;;;2.97;;
80725;SDS011;70113;59.928;10.878;2023-12-20T01:57:53;8.63;;;3.25;;
80725;SDS011;70113;59.928;10.878;2023-12-20T02:00:19;7.75;;;2.83;;
80725;SDS011;70113;59.928;10.878;2023-12-20T02:02:48;7.07;;;2.88;;
80725;SDS011;70113;59.928;10.878;2023-12-20T02:05:16;10.82;;;3.30;;
80725;SDS011;70113;59.928;10.878;2023-12-20T02:07:41;10.18;;;3.75;;
80725;SDS011;70113;59.928;10.878;2023-12-20T02:10:07;10.50;;;5.00;;
80725;SDS011;70113;59.928;10.878;2023-12-20T02:12:33;10.15;;;4.05;;
80725;SDS011;70113;59.928;10.878;2023-12-20T02:14:58;9.95;;;3.90;;
80725;SDS011;70113;59.928;10.878;2023-12-20T02:17:24;11.25;;;4.90;;
80725;SDS011;70113;59.928;10.878;2023-12-20T02:19:50;10.98;;;4.10;;
80725;SDS011;70113;59.928;10.878;2023-12-20T02:22:16;9.85;;;3.58;;
80725;SDS011;70113;59.928;10.878;2023-12-20T02:24:42;10.00;;;3.70;;
80725;SDS011;70113;59.928;10.878;2023-12-20T02:27:07;11.70;;;4.60;;
80725;SDS011;70113;59.928;10.878;2023-12-20T02:29:33;11.25;;;3.35;;
80725;SDS011;70113;59.928;10.878;2023-12-20T02:31:59;7.93;;;3.53;;
80725;SDS011;70113;59.928;10.878;2023-12-20T02:34:25;11.30;;;3.97;;
80725;SDS011;70113;59.928;10.878;2023-12-20T02:36:50;10.23;;;3.78;;
80725;SDS011;70113;59.928;10.878;2023-12-20T02:39:16;11.55;;;3.80;;
80725;SDS011;70113;59.928;10.878;2023-12-20T02:41:41;7.95;;;3.60;;
80725;SDS011;70113;59.928;10.878;2023-12-20T02:44:07;10.25;;;4.10;;
80725;SDS011;70113;59.928;10.878;2023-12-20T02:46:32;11.75;;;4.25;;
80725;SDS011;70113;59.928;10.878;2023-12-20T02:48:58;12.48;;;4.32;;
80725;SDS011;70113;59.928;10.878;2023-12-20T02:51:24;10.68;;;4.47;;
80725;SDS011;70113;59.928;10.878;2023-12-20T02:53:49;12.43;;;4.05;;
80725;SDS011;70113;59.928;10.878;2023-12-20T02:56:15;11.18;;;4.40;;
80725;SDS011;70113;59.928;10.878;2023-12-20T02:58:40;15.60;;;4.68;;
80725;SDS011;70113;59.928;10.878;2023-12-20T05:02:26;11.95;;;4.65;;
80725;SDS011;70113;59.928;10.878;2023-12-20T05:04:52;9.75;;;4.95;;
80725;SDS011;70113;59.928;10.878;2023-12-20T05:07:17;10.10;;;4.97;;
80725;SDS011;70113;59.928;10.878;2023-12-20T05:09:43;11.25;;;5.25;;
80725;SDS011;70113;59.928;10.878;2023-12-20T05:12:08;12.88;;;4.47;;
80725;SDS011;70113;59.928;10.878;2023-12-20T05:14:34;12.02;;;5.45;;
80725;SDS011;70113;59.928;10.878;2023-12-20T05:16:59;10.70;;;4.93;;
80725;SDS011;70113;59.928;10.878;2023-12-20T05:19:25;9.60;;;5.13;;
80725;SDS011;70113;59.928;10.878;2023-12-20T05:21:51;12.40;;;4.63;;
80725;SDS011;70113;59.928;10.878;2023-12-20T05:24:17;16.20;;;4.78;;
80725;SDS011;70113;59.928;10.878;2023-12-20T05:26:43;9.32;;;4.70;;
80725;SDS011;70113;59.928;10.878;2023-12-20T05:29:08;9.98;;;5.18;;
80725;SDS011;70113;59.928;10.878;2023-12-20T05:31:34;11.93;;;4.53;;
80725;SDS011;70113;59.928;10.878;2023-12-20T05:34:00;10.55;;;5.28;;
80725;SDS011;70113;59.928;10.878;2023-12-20T05:36:25;11.93;;;5.05;;
80725;SDS011;70113;59.928;10.878;2023-12-20T05:38:51;10.73;;;4.75;;
80725;SDS011;70113;59.928;10.878;2023-12-20T05:41:16;11.95;;;4.68;;
80725;SDS011;70113;59.928;10.878;2023-12-20T05:43:42;9.00;;;4.20;;
80725;SDS011;70113;59.928;10.878;2023-12-20T05:46:09;9.32;;;3.80;;
80725;SDS011;70113;59.928;10.878;2023-12-20T05:48:35;10.65;;;4.93;;
80725;SDS011;70113;59.928;10.878;2023-12-20T05:51:00;9.60;;;3.97;;
80725;SDS011;70113;59.928;10.878;2023-12-20T05:53:26;7.90;;;3.60;;
80725;SDS011;70113;59.928;10.878;2023-12-20T05:55:51;8.63;;;3.83;;
80725;SDS011;70113;59.928;10.878;2023-12-20T05:58:17;7.65;;;4.20;;
80725;SDS011;70113;59.928;10.878;2023-12-20T06:00:43;8.65;;;4.00;;
80725;SDS011;70113;59.928;10.878;2023-12-20T06:03:08;9.45;;;4.53;;
80725;SDS011;70113;59.928;10.878;2023-12-20T06:05:34;9.00;;;4.30;;
80725;SDS011;70113;59.928;10.878;2023-12-20T06:08:00;11.50;;;5.07;;
80725;SDS011;70113;59.928;10.878;2023-12-20T06:10:28;11.57;;;5.15;;
80725;SDS011;70113;59.928;10.878;2023-12-20T06:12:54;12.90;;;4.88;;
80725;SDS011;70113;59.928;10.878;2023-12-20T06:15:19;14.15;;;4.93;;
80725;SDS011;70113;59.928;10.878;2023-12-20T06:17:45;11.50;;;4.47;;
80725;SDS011;70113;59.928;10.878;2023-12-20T06:20:12;9.43;;;4.70;;
80725;SDS011;70113;59.928;10.878;2023-12-20T06:22:38;12.35;;;5.78;;
80725;SDS011;70113;59.928;10.878;2023-12-20T06:25:04;10.77;;;5.07;;
80725;SDS011;70113;59.928;10.878;2023-12-20T06:27:30;15.27;;;6.22;;
80725;SDS011;70113;59.928;10.878;2023-12-20T06:29:57;15.48;;;5.93;;
80725;SDS011;70113;59.928;10.878;2023-12-20T06:32:23;15.23;;;5.63;;
80725;SDS011;70113;59.928;10.878;2023-12-20T06:34:49;11.55;;;5.10;;
80725;SDS011;70113;59.928;10.878;2023-12-20T06:37:15;10.82;;;5.80;;
80725;SDS011;70113;59.928;10.878;2023-12-20T06:39:40;13.13;;;5.53;;
80725;SDS011;70113;59.928;10.878;2023-12-20T06:42:06;10.20;;;5.40;;
80725;SDS011;70113;59.928;10.878;2023-12-20T06:44:31;10.25;;;5.05;;
80725;SDS011;70113;59.928;10.878;2023-12-20T06:46:57;14.88;;;5.68;;
80725;SDS011;70113;59.928;10.878;2023-12-20T06:49:23;11.80;;;4.82;;
80725;SDS011;70113;59.928;10.878;2023-12-20T06:51:48;13.40;;;5.30;;
80725;SDS011;70113;59.928;10.878;2023-12-20T06:54:14;11.82;;;4.43;;
80725;SDS011;70113;59.928;10.878;2023-12-20T06:56:40;10.98;;;4.28;;
80725;SDS011;70113;59.928;10.878;2023-12-20T06:59:06;9.98;;;4.75;;
80725;SDS011;70113;59.928;10.878;2023-12-20T07:01:32;10.63;;;4.00;;
80725;SDS011;70113;59.928;10.878;2023-12-20T07:03:57;10.68;;;4.03;;
80725;SDS011;70113;59.928;10.878;2023-12-20T07:06:23;11.80;;;4.65;;
80725;SDS011;70113;59.928;10.878;2023-12-20T07:08:49;14.52;;;4.40;;
80725;SDS011;70113;59.928;10.878;2023-12-20T07:11:14;15.38;;;4.70;;
80725;SDS011;70113;59.928;10.878;2023-12-20T07:13:40;14.90;;;5.03;;
80725;SDS011;70113;59.928;10.878;2023-12-20T07:16:06;9.82;;;4.50;;
80725;SDS011;70113;59.928;10.878;2023-12-20T07:18:31;11.60;;;4.30;;
80725;SDS011;70113;59.928;10.878;2023-12-20T07:20:57;10.15;;;4.47;;
80725;SDS011;70113;59.928;10.878;2023-12-20T07:23:22;11.65;;;3.88;;
80725;SDS011;70113;59.928;10.878;2023-12-20T07:25:48;11.98;;;5.03;;
80725;SDS011;70113;59.928;10.878;2023-12-20T07:28:13;14.80;;;4.57;;
80725;SDS011;70113;59.928;10.878;2023-12-20T07:30:39;11.32;;;4.88;;
80725;SDS011;70113;59.928;10.878;2023-12-20T07:33:04;15.25;;;4.68;;
80725;SDS011;70113;59.928;10.878;2023-12-20T07:35:30;11.07;;;4.90;;
80725;SDS011;70113;59.928;10.878;2023-12-20T07:37:56;13.55;;;4.93;;
80725;SDS011;70113;59.928;10.878;2023-12-20T07:40:22;11.30;;;4.50;;
80725;SDS011;70113;59.928;10.878;2023-12-20T07:42:49;11.02;;;4.47;;
80725;SDS011;70113;59.928;10.878;2023-12-20T07:45:15;11.32;;;4.50;;
80725;SDS011;70113;59.928;10.878;2023-12-20T07:47:40;12.18;;;4.95;;
80725;SDS011;70113;59.928;10.878;2023-12-20T07:50:06;13.75;;;5.18;;
80725;SDS011;70113;59.928;10.878;2023-12-20T07:52:32;11.50;;;4.53;;
80725;SDS011;70113;59.928;10.878;2023-12-20T07:54:58;10.43;;;4.65;;
80725;SDS011;70113;59.928;10.878;2023-12-20T07:57:23;9.07;;;4.50;;
80725;SDS011;70113;59.928;10.878;2023-12-20T07:59:49;15.23;;;4.60;;
80725;SDS011;70113;59.928;10.878;2023-12-20T08:02:15;9.93;;;4.13;;
80725;SDS011;70113;59.928;10.878;2023-12-20T08:04:40;8.48;;;4.32;;
80725;SDS011;70113;59.928;10.878;2023-12-20T08:07:06;11.27;;;4.35;;
80725;SDS011;70113;59.928;10.878;2023-12-20T08:09:32;9.35;;;4.38;;
80725;SDS011;70113;59.928;10.878;2023-12-20T08:11:59;9.50;;;4.07;;
80725;SDS011;70113;59.928;10.878;2023-12-20T08:14:25;10.15;;;4.75;;
80725;SDS011;70113;59.928;10.878;2023-12-20T08:16:50;8.73;;;4.40;;
80725;SDS011;70113;59.928;10.878;2023-12-20T08:19:16;13.82;;;5.55;;
80725;SDS011;70113;59.928;10.878;2023-12-20T08:21:42;11.02;;;5.65;;
80725;SDS011;70113;59.928;10.878;2023-12-20T08:24:08;14.40;;;5.20;;
80725;SDS011;70113;59.928;10.878;2023-12-20T08:26:33;10.45;;;5.05;;
80725;SDS011;70113;59.928;10.878;2023-12-20T08:28:59;9.77;;;4.25;;
80725;SDS011;70113;59.928;10.878;2023-12-20T08:31:24;8.90;;;4.45;;
80725;SDS011;70113;59.928;10.878;2023-12-20T08:33:51;10.48;;;3.65;;
80725;SDS011;70113;59.928;10.878;2023-12-20T08:36:18;12.80;;;4.88;;
80725;SDS011;70113;59.928;10.878;2023-12-20T08:38:45;8.98;;;3.50;;
80725;SDS011;70113;59.928;10.878;2023-12-20T08:41:11;10.48;;;4.15;;
80725;SDS011;70113;59.928;10.878;2023-12-20T08:43:36;10.38;;;4.43;;
80725;SDS011;70113;59.928;10.878;2023-12-20T08:46:04;11.65;;;4.65;;
80725;SDS011;70113;59.928;10.878;2023-12-20T08:48:30;13.82;;;5.30;;
80725;SDS011;70113;59.928;10.878;2023-12-20T08:50:56;18.15;;;5.53;;
80725;SDS011;70113;59.928;10.878;2023-12-20T08:53:22;14.30;;;4.85;;
80725;SDS011;70113;59.928;10.878;2023-12-20T08:55:47;12.48;;;5.22;;
80725;SDS011;70113;59.928;10.878;2023-12-20T08:58:13;16.15;;;5.45;;
80725;SDS011;70113;59.928;10.878;2023-12-20T09:00:39;19.08;;;5.63;;
80725;SDS011;70113;59.928;10.878;2023-12-20T09:03:05;15.10;;;5.35;;
80725;SDS011;70113;59.928;10.878;2023-12-20T09:05:30;11.32;;;4.35;;
80725;SDS011;70113;59.928;10.878;2023-12-20T09:07:56;12.13;;;4.45;;
80725;SDS011;70113;59.928;10.878;2023-12-20T09:10:22;9.98;;;3.30;;
80725;SDS011;70113;59.928;10.878;2023-12-20T09:12:48;9.77;;;3.83;;
80725;SDS011;70113;59.928;10.878;2023-12-20T09:15:13;7.68;;;3.53;;
80725;SDS011;70113;59.928;10.878;2023-12-20T09:17:40;12.35;;;3.70;;
80725;SDS011;70113;59.928;10.878;2023-12-20T09:20:06;9.85;;;3.25;;
80725;SDS011;70113;59.928;10.878;2023-12-20T09:22:34;8.70;;;4.38;;
80725;SDS011;70113;59.928;10.878;2023-12-20T09:24:59;10.68;;;3.72;;
80725;SDS011;70113;59.928;10.878;2023-12-20T09:27:25;10.65;;;3.45;;
80725;SDS011;70113;59.928;10.878;2023-12-20T09:29:51;9.52;;;3.30;;
80725;SDS011;70113;59.928;10.878;2023-12-20T09:32:17;8.15;;;3.38;;
80725;SDS011;70113;59.928;10.878;2023-12-20T09:34:42;7.25;;;3.58;;
80725;SDS011;70113;59.928;10.878;2023-12-20T09:37:08;10.40;;;3.70;;
80725;SDS011;70113;59.928;10.878;2023-12-20T09:39:33;8.85;;;3.58;;
80725;SDS011;70113;59.928;10.878;2023-12-20T09:42:03;9.63;;;3.55;;
80725;SDS011;70113;59.928;10.878;2023-12-20T09:44:29;9.10;;;3.40;;
80725;SDS011;70113;59.928;10.878;2023-12-20T09:46:55;8.30;;;3.83;;
80725;SDS011;70113;59.928;10.878;2023-12-20T09:49:21;11.55;;;4.10;;
80725;SDS011;70113;59.928;10.878;2023-12-20T09:51:47;13.07;;;4.05;;
80725;SDS011;70113;59.928;10.878;2023-12-20T09:54:16;8.60;;;3.40;;
80725;SDS011;70113;59.928;10.878;2023-12-20T09:56:42;9.10;;;4.30;;
80725;SDS011;70113;59.928;10.878;2023-12-20T09:59:07;10.35;;;3.58;;
80725;SDS011;70113;59.928;10.878;2023-12-20T10:01:33;7.72;;;3.08;;
80725;SDS011;70113;59.928;10.878;2023-12-20T10:03:59;7.90;;;3.30;;
80725;SDS011;70113;59.928;10.878;2023-12-20T10:06:25;10.38;;;3.50;;
80725;SDS011;70113;59.928;10.878;2023-12-20T10:08:51;7.45;;;3.30;;
80725;SDS011;70113;59.928;10.878;2023-12-20T10:11:17;9.18;;;3.30;;
80725;SDS011;70113;59.928;10.878;2023-12-20T10:13:44;5.32;;;2.75;;
80725;SDS011;70113;59.928;10.878;2023-12-20T10:16:12;6.85;;;3.05;;
80725;SDS011;70113;59.928;10.878;2023-12-20T10:18:38;7.70;;;3.45;;
80725;SDS011;70113;59.928;10.878;2023-12-20T10:21:04;7.63;;;3.20;;
80725;SDS011;70113;59.928;10.878;2023-12-20T10:23:31;7.45;;;3.25;;
80725;SDS011;70113;59.928;10.878;2023-12-20T10:25:57;7.68;;;2.95;;
80725;SDS011;70113;59.928;10.878;2023-12-20T10:28:25;6.55;;;3.28;;
80725;SDS011;70113;59.928;10.878;2023-12-20T10:30:54;6.40;;;3.10;;
80725;SDS011;70113;59.928;10.878;2023-12-20T10:33:26;8.35;;;3.67;;
80725;SDS011;70113;59.928;10.878;2023-12-20T10:35:52;6.72;;;2.78;;
80725;SDS011;70113;59.928;10.878;2023-12-20T10:38:18;7.80;;;2.70;;
80725;SDS011;70113;59.928;10.878;2023-12-20T10:40:47;6.32;;;2.72;;
80725;SDS011;70113;59.928;10.878;2023-12-20T10:43:13;6.15;;;2.83;;
80725;SDS011;70113;59.928;10.878;2023-12-20T10:45:38;5.82;;;3.13;;
80725;SDS011;70113;59.928;10.878;2023-12-20T10:48:04;8.40;;;3.10;;
80725;SDS011;70113;59.928;10.878;2023-12-20T10:50:30;6.15;;;2.80;;
80725;SDS011;70113;59.928;10.878;2023-12-20T10:52:56;6.20;;;3.10;;
80725;SDS011;70113;59.928;10.878;2023-12-20T10:55:23;6.97;;;3.15;;
80725;SDS011;70113;59.928;10.878;2023-12-20T10:57:49;6.63;;;3.08;;
80725;SDS011;70113;59.928;10.878;2023-12-20T11:00:17;6.90;;;2.92;;
80725;SDS011;70113;59.928;10.878;2023-12-20T11:02:43;5.18;;;2.83;;
80725;SDS011;70113;59.928;10.878;2023-12-20T11:07:43;7.78;;;3.30;;
80725;SDS011;70113;59.928;10.878;2023-12-20T11:10:16;6.70;;;2.67;;
80725;SDS011;70113;59.928;10.878;2023-12-20T11:12:57;5.97;;;2.95;;
80725;SDS011;70113;59.928;10.878;2023-12-20T11:15:24;6.30;;;2.75;;
80725;SDS011;70113;59.928;10.878;2023-12-20T11:17:56;12.73;;;7.15;;
80725;SDS011;70113;59.928;10.878;2023-12-20T11:20:23;6.43;;;3.05;;
80725;SDS011;70113;59.928;10.878;2023-12-20T11:22:52;8.18;;;2.97;;
80725;SDS011;70113;59.928;10.878;2023-12-20T11:25:18;9.93;;;3.40;;
80725;SDS011;70113;59.928;10.878;2023-12-20T11:27:44;6.38;;;3.40;;
80725;SDS011;70113;59.928;10.878;2023-12-20T11:30:35;8.15;;;2.88;;
80725;SDS011;70113;59.928;10.878;2023-12-20T11:33:05;6.65;;;3.22;;
80725;SDS011;70113;59.928;10.878;2023-12-20T11:35:32;9.40;;;3.70;;
80725;SDS011;70113;59.928;10.878;2023-12-20T11:37:58;7.82;;;3.58;;
80725;SDS011;70113;59.928;10.878;2023-12-20T11:40:23;10.75;;;4.30;;
80725;SDS011;70113;59.928;10.878;2023-12-20T11:42:50;8.25;;;3.60;;
80725;SDS011;70113;59.928;10.878;2023-12-20T11:45:21;7.20;;;3.78;;
80725;SDS011;70113;59.928;10.878;2023-12-20T11:47:49;8.68;;;3.67;;
80725;SDS011;70113;59.928;10.878;2023-12-20T11:50:21;11.10;;;4.72;;
80725;SDS011;70113;59.928;10.878;2023-12-20T11:52:47;9.80;;;4.68;;
80725;SDS011;70113;59.928;10.878;2023-12-20T11:55:13;14.05;;;7.03;;
80725;SDS011;70113;59.928;10.878;2023-12-20T11:57:39;13.82;;;6.15;;
80725;SDS011;70113;59.928;10.878;2023-12-20T12:00:04;15.80;;;6.07;;
80725;SDS011;70113;59.928;10.878;2023-12-20T12:02:31;10.85;;;5.97;;
80725;SDS011;70113;59.928;10.878;2023-12-20T12:04:57;10.30;;;5.60;;
80725;SDS011;70113;59.928;10.878;2023-12-20T12:07:24;11.98;;;6.85;;
80725;SDS011;70113;59.928;10.878;2023-12-20T12:09:49;10.98;;;7.10;;
80725;SDS011;70113;59.928;10.878;2023-12-20T12:12:15;12.65;;;5.47;;
80725;SDS011;70113;59.928;10.878;2023-12-20T12:14:41;10.02;;;5.18;;
80725;SDS011;70113;59.928;10.878;2023-12-20T12:17:10;12.00;;;5.38;;
80725;SDS011;70113;59.928;10.878;2023-12-20T12:19:35;15.45;;;5.57;;
80725;SDS011;70113;59.928;10.878;2023-12-20T12:22:08;10.80;;;4.50;;
80725;SDS011;70113;59.928;10.878;2023-12-20T12:24:38;10.55;;;5.15;;
80725;SDS011;70113;59.928;10.878;2023-12-20T12:27:05;11.27;;;6.20;;
80725;SDS011;70113;59.928;10.878;2023-12-20T12:29:31;12.35;;;5.40;;
80725;SDS011;70113;59.928;10.878;2023-12-20T12:31:57;9.82;;;5.13;;
80725;SDS011;70113;59.928;10.878;2023-12-20T12:34:23;15.88;;;9.15;;
80725;SDS011;70113;59.928;10.878;2023-12-20T12:36:48;13.93;;;6.93;;
80725;SDS011;70113;59.928;10.878;2023-12-20T12:39:15;9.90;;;4.95;;
80725;SDS011;70113;59.928;10.878;2023-12-20T12:41:43;11.02;;;5.45;;
80725;SDS011;70113;59.928;10.878;2023-12-20T12:44:09;9.52;;;5.80;;
80725;SDS011;70113;59.928;10.878;2023-12-20T12:46:34;8.75;;;3.88;;
80725;SDS011;70113;59.928;10.878;2023-12-20T12:49:00;8.48;;;3.50;;
80725;SDS011;70113;59.928;10.878;2023-12-20T12:51:25;7.32;;;2.20;;
80725;SDS011;70113;59.928;10.878;2023-12-20T12:53:51;4.78;;;2.33;;
80725;SDS011;70113;59.928;10.878;2023-12-20T12:56:17;5.72;;;2.33;;
80725;SDS011;70113;59.928;10.878;2023-12-20T12:58:42;5.65;;;2.13;;
80725;SDS011;70113;59.928;10.878;2023-12-20T13:01:08;5.80;;;2.20;;
80725;SDS011;70113;59.928;10.878;2023-12-20T13:03:34;5.00;;;2.00;;
80725;SDS011;70113;59.928;10.878;2023-12-20T13:06:00;6.25;;;1.67;;
80725;SDS011;70113;59.928;10.878;2023-12-20T13:08:25;7.35;;;1.98;;
80725;SDS011;70113;59.928;10.878;2023-12-20T13:10:51;5.60;;;1.98;;
80725;SDS011;70113;59.928;10.878;2023-12-20T13:13:17;4.68;;;1.75;;
80725;SDS011;70113;59.928;10.878;2023-12-20T13:15:42;6.25;;;2.17;;
80725;SDS011;70113;59.928;10.878;2023-12-20T13:18:13;5.63;;;2.00;;
80725;SDS011;70113;59.928;10.878;2023-12-20T13:20:39;5.60;;;2.33;;
80725;SDS011;70113;59.928;10.878;2023-12-20T13:23:05;6.88;;;3.35;;
80725;SDS011;70113;59.928;10.878;2023-12-20T13:25:31;6.72;;;2.92;;
80725;SDS011;70113;59.928;10.878;2023-12-20T13:27:56;7.70;;;3.25;;
80725;SDS011;70113;59.928;10.878;2023-12-20T13:30:22;9.40;;;4.63;;
80725;SDS011;70113;59.928;10.878;2023-12-20T13:32:48;8.13;;;3.35;;
80725;SDS011;70113;59.928;10.878;2023-12-20T13:35:14;7.63;;;3.70;;
80725;SDS011;70113;59.928;10.878;2023-12-20T13:37:39;7.15;;;2.75;;
80725;SDS011;70113;59.928;10.878;2023-12-20T13:40:05;7.00;;;2.90;;
80725;SDS011;70113;59.928;10.878;2023-12-20T13:42:31;6.85;;;2.25;;
80725;SDS011;70113;59.928;10.878;2023-12-20T13:44:57;4.47;;;1.48;;
80725;SDS011;70113;59.928;10.878;2023-12-20T13:47:22;3.15;;;1.20;;
80725;SDS011;70113;59.928;10.878;2023-12-20T13:49:48;3.42;;;1.20;;
80725;SDS011;70113;59.928;10.878;2023-12-20T13:52:13;3.83;;;1.42;;
80725;SDS011;70113;59.928;10.878;2023-12-20T13:54:39;8.63;;;3.42;;
80725;SDS011;70113;59.928;10.878;2023-12-20T13:57:04;10.05;;;4.10;;
80725;SDS011;70113;59.928;10.878;2023-12-20T13:59:30;8.25;;;3.55;;
80725;SDS011;70113;59.928;10.878;2023-12-20T14:01:56;7.88;;;2.95;;
80725;SDS011;70113;59.928;10.878;2023-12-20T14:04:22;9.55;;;3.00;;
80725;SDS011;70113;59.928;10.878;2023-12-20T14:06:48;6.13;;;2.60;;
80725;SDS011;70113;59.928;10.878;2023-12-20T14:09:13;7.07;;;2.45;;
80725;SDS011;70113;59.928;10.878;2023-12-20T14:11:40;9.68;;;3.38;;
80725;SDS011;70113;59.928;10.878;2023-12-20T14:14:06;7.05;;;2.53;;
80725;SDS011;70113;59.928;10.878;2023-12-20T14:16:33;5.25;;;1.98;;
80725;SDS011;70113;59.928;10.878;2023-12-20T14:18:59;4.10;;;1.70;;
80725;SDS011;70113;59.928;10.878;2023-12-20T14:21:24;4.65;;;1.40;;
80725;SDS011;70113;59.928;10.878;2023-12-20T14:23:50;4.53;;;1.50;;
80725;SDS011;70113;59.928;10.878;2023-12-20T14:26:17;4.65;;;1.38;;
80725;SDS011;70113;59.928;10.878;2023-12-20T14:28:43;4.60;;;2.03;;
80725;SDS011;70113;59.928;10.878;2023-12-20T14:31:09;11.30;;;6.05;;
80725;SDS011;70113;59.928;10.878;2023-12-20T14:33:35;25.45;;;15.07;;
80725;SDS011;70113;59.928;10.878;2023-12-20T14:36:01;21.17;;;11.48;;
80725;SDS011;70113;59.928;10.878;2023-12-20T14:38:30;9.52;;;5.25;;
80725;SDS011;70113;59.928;10.878;2023-12-20T14:40:56;4.32;;;2.05;;
80725;SDS011;70113;59.928;10.878;2023-12-20T14:43:22;9.13;;;4.25;;
80725;SDS011;70113;59.928;10.878;2023-12-20T14:45:48;12.90;;;7.30;;
80725;SDS011;70113;59.928;10.878;2023-12-20T14:48:13;14.32;;;9.15;;
80725;SDS011;70113;59.928;10.878;2023-12-20T14:50:39;11.02;;;6.60;;
80725;SDS011;70113;59.928;10.878;2023-12-20T14:53:06;10.25;;;4.47;;
80725;SDS011;70113;59.928;10.878;2023-12-20T14:55:32;9.25;;;3.92;;
80725;SDS011;70113;59.928;10.878;2023-12-20T14:57:59;8.38;;;4.20;;
80725;SDS011;70113;59.928;10.878;2023-12-20T15:00:25;8.73;;;5.28;;
80725;SDS011;70113;59.928;10.878;2023-12-20T15:02:50;11.50;;;7.70;;
80725;SDS011;70113;59.928;10.878;2023-12-20T15:05:17;13.05;;;8.75;;
80725;SDS011;70113;59.928;10.878;2023-12-20T15:07:43;13.70;;;7.78;;
80725;SDS011;70113;59.928;10.878;2023-12-20T15:10:09;8.00;;;4.80;;
80725;SDS011;70113;59.928;10.878;2023-12-20T15:12:34;6.88;;;3.70;;
80725;SDS011;70113;59.928;10.878;2023-12-20T15:15:00;9.43;;;4.60;;
80725;SDS011;70113;59.928;10.878;2023-12-20T15:17:25;12.13;;;7.45;;
80725;SDS011;70113;59.928;10.878;2023-12-20T15:19:52;7.82;;;4.78;;
80725;SDS011;70113;59.928;10.878;2023-12-20T15:22:17;8.90;;;5.28;;
80725;SDS011;70113;59.928;10.878;2023-12-20T15:24:43;11.60;;;8.10;;
80725;SDS011;70113;59.928;10.878;2023-12-20T15:27:11;14.57;;;8.50;;
80725;SDS011;70113;59.928;10.878;2023-12-20T15:29:37;10.45;;;6.68;;
80725;SDS011;70113;59.928;10.878;2023-12-20T15:32:02;12.73;;;8.60;;
80725;SDS011;70113;59.928;10.878;2023-12-20T15:34:29;8.55;;;5.15;;
80725;SDS011;70113;59.928;10.878;2023-12-20T15:36:55;8.73;;;4.75;;
80725;SDS011;70113;59.928;10.878;2023-12-20T15:39:21;6.45;;;3.88;;
80725;SDS011;70113;59.928;10.878;2023-12-20T15:41:46;9.90;;;5.07;;
80725;SDS011;70113;59.928;10.878;2023-12-20T15:44:12;10.85;;;5.45;;
80725;SDS011;70113;59.928;10.878;2023-12-20T15:46:38;18.95;;;12.52;;
80725;SDS011;70113;59.928;10.878;2023-12-20T15:49:04;26.83;;;17.55;;
80725;SDS011;70113;59.928;10.878;2023-12-20T15:51:29;17.45;;;9.90;;
80725;SDS011;70113;59.928;10.878;2023-12-20T15:53:55;32.10;;;16.13;;
80725;SDS011;70113;59.928;10.878;2023-12-20T15:56:22;32.88;;;22.00;;
80725;SDS011;70113;59.928;10.878;2023-12-20T15:58:48;24.02;;;15.15;;
80725;SDS011;70113;59.928;10.878;2023-12-20T16:01:13;13.20;;;7.50;;
80725;SDS011;70113;59.928;10.878;2023-12-20T16:03:39;11.60;;;5.25;;
80725;SDS011;70113;59.928;10.878;2023-12-20T16:06:05;9.77;;;5.65;;
80725;SDS011;70113;59.928;10.878;2023-12-20T16:08:30;13.43;;;6.25;;
80725;SDS011;70113;59.928;10.878;2023-12-20T16:10:56;15.35;;;8.57;;
80725;SDS011;70113;59.928;10.878;2023-12-20T16:13:22;13.73;;;6.07;;
80725;SDS011;70113;59.928;10.878;2023-12-20T16:15:48;13.88;;;6.03;;
80725;SDS011;70113;59.928;10.878;2023-12-20T16:18:13;17.30;;;7.93;;
80725;SDS011;70113;59.928;10.878;2023-12-20T16:20:39;22.27;;;9.00;;
80725;SDS011;70113;59.928;10.878;2023-12-20T16:23:05;12.68;;;5.53;;
80725;SDS011;70113;59.928;10.878;2023-12-20T16:25:30;12.07;;;5.13;;
80725;SDS011;70113;59.928;10.878;2023-12-20T16:27:56;7.95;;;3.25;;
80725;SDS011;70113;59.928;10.878;2023-12-20T16:30:22;6.72;;;2.85;;
80725;SDS011;70113;59.928;10.878;2023-12-20T16:32:47;5.57;;;2.75;;
80725;SDS011;70113;59.928;10.878;2023-12-20T16:35:13;6.90;;;2.67;;
80725;SDS011;70113;59.928;10.878;2023-12-20T16:37:39;7.75;;;2.92;;
80725;SDS011;70113;59.928;10.878;2023-12-20T16:40:05;6.22;;;3.03;;
80725;SDS011;70113;59.928;10.878;2023-12-20T16:42:31;6.88;;;2.95;;
80725;SDS011;70113;59.928;10.878;2023-12-20T16:44:56;6.90;;;2.47;;
80725;SDS011;70113;59.928;10.878;2023-12-20T16:47:22;5.18;;;2.78;;
80725;SDS011;70113;59.928;10.878;2023-12-20T16:49:48;6.70;;;2.63;;
80725;SDS011;70113;59.928;10.878;2023-12-20T16:52:13;5.68;;;2.20;;
80725;SDS011;70113;59.928;10.878;2023-12-20T16:54:39;5.63;;;2.22;;
80725;SDS011;70113;59.928;10.878;2023-12-20T16:57:04;7.45;;;3.47;;
80725;SDS011;70113;59.928;10.878;2023-12-20T16:59:30;6.70;;;2.30;;
80725;SDS011;70113;59.928;10.878;2023-12-20T17:01:56;5.88;;;2.30;;
80725;SDS011;70113;59.928;10.878;2023-12-20T17:04:21;8.45;;;4.70;;
80725;SDS011;70113;59.928;10.878;2023-12-20T17:06:49;9.55;;;4.68;;
80725;SDS011;70113;59.928;10.878;2023-12-20T17:09:14;8.25;;;4.43;;
80725;SDS011;70113;59.928;10.878;2023-12-20T17:11:41;12.15;;;4.55;;
80725;SDS011;70113;59.928;10.878;2023-12-20T17:14:07;6.45;;;3.45;;
80725;SDS011;70113;59.928;10.878;2023-12-20T17:16:34;9.35;;;3.75;;
80725;SDS011;70113;59.928;10.878;2023-12-20T17:18:59;36.47;;;16.67;;
80725;SDS011;70113;59.928;10.878;2023-12-20T17:21:26;33.13;;;15.73;;
80725;SDS011;70113;59.928;10.878;2023-12-20T17:23:52;20.77;;;9.32;;